Dong Kun 7 — T8A2583 — position and weather

sailwx.info

Track history (hours):
 
Tides and Currents Weather Stations Pressure Air Temp Water Temp Dewpoint Dewpoint Depression Visibility Wind Speed Wind Dir Waves Ship Positions

Dong Kun 7

Last reported at 2018-Jun-20 13:08 UTC. Time now 2018-Jun-20 17:08 UTC.
Position N 23°21' E 117°24'.

Length 97 m; draft 5.9 m.

Type: Cargo ship. MMSI: 511499000.

Date/timePositionNaut miles runAvg speedWind from/ knotsBaromVisibWave heightAir tempDewpointWater temp
2018-Jun-20 13:08N 23°21' E 117°24'2 7.4
2018-Jun-20 12:50N 23°23' E 117°25'3 7.1
2018-Jun-20 12:28N 23°25' E 117°27'3 6.9
2018-Jun-20 12:00N 23°27' E 117°29'3 6.9
2018-Jun-20 11:30N 23°30' E 117°32'3 6.8
2018-Jun-20 11:01N 23°33' E 117°34'3 6.7
2018-Jun-20 10:30N 23°35' E 117°36'4 6.9
2018-Jun-20 10:00N 23°38' E 117°38'4 7.2
2018-Jun-20 09:30N 23°41' E 117°41'3 6.8
2018-Jun-20 09:00N 23°43' E 117°43'3 6.3
2018-Jun-20 08:30N 23°45' E 117°46'3 6.1
2018-Jun-20 07:59N 23°48' E 117°48'3 6.2
2018-Jun-20 07:30N 23°50' E 117°51'3 6.0
2018-Jun-20 07:00N 23°52' E 117°53'3 5.8
2018-Jun-20 06:26N 23°54' E 117°56'3 5.8
2018-Jun-20 06:00N 23°55' E 117°58'5 5.7
2018-Jun-20 05:10N 23°58' E 118°02'2 5.6
2018-Jun-20 04:54N 23°59' E 118°04'2 5.5
2018-Jun-20 04:30N 24°01' E 118°05'3 5.4
2018-Jun-20 03:56N 24°02' E 118°08'2 5.7
2018-Jun-20 03:30N 24°04' E 118°10'3 5.7
2018-Jun-20 02:59N 24°05' E 118°13'3 6.1
2018-Jun-20 02:30N 24°07' E 118°16'3 6.2
2018-Jun-20 02:00N 24°09' E 118°18'3 6.4
2018-Jun-20 01:31N 24°11' E 118°21'3 6.6
2018-Jun-20 01:00N 24°13' E 118°24'3 6.6
2018-Jun-20 00:30N 24°16' E 118°25'3 6.9
2018-Jun-20 00:01N 24°19' E 118°27'4 7.0
2018-Jun-19 23:28N 24°21' E 118°31'3 7.1
2018-Jun-19 23:00N 24°24' E 118°33'  
2018-Jun-12 13:25N 35°04' E 139°41'4 8.9
2018-Jun-12 12:56N 35°07' E 139°45'4 8.9
2018-Jun-12 12:30N 35°11' E 139°46'5 9.7
2018-Jun-12 12:01N 35°16' E 139°46'5 9.5
2018-Jun-12 11:30N 35°19' E 139°43'4 8.9
2018-Jun-12 11:00N 35°24' E 139°43'5 9.2
2018-Jun-12 10:30N 35°27' E 139°47'5 9.4
2018-Jun-12 10:00N 35°30' E 139°52'5 9.2
2018-Jun-12 09:30N 35°33' E 139°56'5 8.4
2018-Jun-12 08:57N 35°37' E 139°59'  
Track history (hours):
 
Tides and Currents Weather Stations Pressure Air Temp Water Temp Dewpoint Dewpoint Depression Visibility Wind Speed Wind Dir Waves Ship Positions

Dong Kun 7

Last reported at 2018-Jun-20 13:08 UTC. Time now 2018-Jun-20 17:08 UTC.
Position N 23°21' E 117°24'.

Length 97 m; draft 5.9 m.

Type: Cargo ship. MMSI: 511499000.

Date/timePositionNaut miles runAvg speedWind from/ knotsBaromVisibWave heightAir tempDewpointWater temp
2018-Jun-20 13:08N 23°21' E 117°24'2 7.4
2018-Jun-20 12:50N 23°23' E 117°25'3 7.1
2018-Jun-20 12:28N 23°25' E 117°27'3 6.9
2018-Jun-20 12:00N 23°27' E 117°29'3 6.9
2018-Jun-20 11:30N 23°30' E 117°32'3 6.8
2018-Jun-20 11:01N 23°33' E 117°34'3 6.7
2018-Jun-20 10:30N 23°35' E 117°36'4 6.9
2018-Jun-20 10:00N 23°38' E 117°38'4 7.2
2018-Jun-20 09:30N 23°41' E 117°41'3 6.8
2018-Jun-20 09:00N 23°43' E 117°43'3 6.3
2018-Jun-20 08:30N 23°45' E 117°46'3 6.1
2018-Jun-20 07:59N 23°48' E 117°48'3 6.2
2018-Jun-20 07:30N 23°50' E 117°51'3 6.0
2018-Jun-20 07:00N 23°52' E 117°53'3 5.8
2018-Jun-20 06:26N 23°54' E 117°56'3 5.8
2018-Jun-20 06:00N 23°55' E 117°58'5 5.7
2018-Jun-20 05:10N 23°58' E 118°02'2 5.6
2018-Jun-20 04:54N 23°59' E 118°04'2 5.5
2018-Jun-20 04:30N 24°01' E 118°05'3 5.4
2018-Jun-20 03:56N 24°02' E 118°08'2 5.7
2018-Jun-20 03:30N 24°04' E 118°10'3 5.7
2018-Jun-20 02:59N 24°05' E 118°13'3 6.1
2018-Jun-20 02:30N 24°07' E 118°16'3 6.2
2018-Jun-20 02:00N 24°09' E 118°18'3 6.4
2018-Jun-20 01:31N 24°11' E 118°21'3 6.6
2018-Jun-20 01:00N 24°13' E 118°24'3 6.6
2018-Jun-20 00:30N 24°16' E 118°25'3 6.9
2018-Jun-20 00:01N 24°19' E 118°27'4 7.0
2018-Jun-19 23:28N 24°21' E 118°31'3 7.1
2018-Jun-19 23:00N 24°24' E 118°33'  
2018-Jun-12 13:25N 35°04' E 139°41'4 8.9
2018-Jun-12 12:56N 35°07' E 139°45'4 8.9
2018-Jun-12 12:30N 35°11' E 139°46'5 9.7
2018-Jun-12 12:01N 35°16' E 139°46'5 9.5
2018-Jun-12 11:30N 35°19' E 139°43'4 8.9
2018-Jun-12 11:00N 35°24' E 139°43'5 9.2
2018-Jun-12 10:30N 35°27' E 139°47'5 9.4
2018-Jun-12 10:00N 35°30' E 139°52'5 9.2
2018-Jun-12 09:30N 35°33' E 139°56'5 8.4
2018-Jun-12 08:57N 35°37' E 139°59'  

Dump ship's entire track history